createdAt,value
2022-07-29T00:01:22.465Z,100164.41
2022-07-29T00:03:50.898Z,100166.09
2022-07-29T00:06:19.152Z,100162.22
2022-07-29T00:08:47.341Z,100161.00
2022-07-29T00:11:15.540Z,100158.75
2022-07-29T00:13:46.501Z,100165.97
2022-07-29T00:16:18.858Z,100164.59
2022-07-29T00:18:48.345Z,100166.44
2022-07-29T00:21:16.618Z,100160.03
2022-07-29T00:23:44.696Z,100162.78
2022-07-29T00:26:12.993Z,100171.13
2022-07-29T00:28:41.038Z,100169.72
2022-07-29T00:31:16.860Z,100168.22
2022-07-29T00:33:44.937Z,100172.88
2022-07-29T00:36:13.500Z,100167.38
2022-07-29T00:38:45.204Z,100168.50
2022-07-29T00:41:13.427Z,100172.09
2022-07-29T00:43:41.977Z,100172.13
2022-07-29T00:46:10.269Z,100166.81
2022-07-29T00:48:38.632Z,100176.56
2022-07-29T00:51:09.322Z,100173.03
2022-07-29T00:53:38.929Z,100163.34
2022-07-29T00:56:07.339Z,100169.50
2022-07-29T00:58:35.410Z,100164.53
2022-07-29T01:01:03.543Z,100171.16
2022-07-29T01:03:31.671Z,100169.34
2022-07-29T01:06:00.633Z,100168.88
2022-07-29T01:08:28.757Z,100166.63
2022-07-29T01:10:58.401Z,100164.47
2022-07-29T01:13:27.732Z,100155.97
2022-07-29T01:16:00.702Z,100156.31
2022-07-29T01:18:34.390Z,100156.00
2022-07-29T01:21:30.242Z,100160.09
2022-07-29T01:24:13.967Z,100160.09
2022-07-29T01:26:49.003Z,100164.38
2022-07-29T01:29:36.169Z,100161.13
2022-07-29T01:32:18.048Z,100156.81
2022-07-29T01:35:04.264Z,100147.78
2022-07-29T01:37:43.303Z,100146.34
2022-07-29T01:40:16.073Z,100145.78
2022-07-29T01:42:46.624Z,100156.19
2022-07-29T01:45:20.368Z,100144.69
2022-07-29T01:47:58.714Z,100152.34
2022-07-29T01:50:33.534Z,100148.97
2022-07-29T01:53:04.269Z,100153.56
2022-07-29T01:55:37.228Z,100146.16
2022-07-29T01:58:07.392Z,100153.38
2022-07-29T02:00:38.098Z,100158.38
2022-07-29T02:03:10.960Z,100149.56
2022-07-29T02:05:41.928Z,100151.03
2022-07-29T02:08:12.309Z,100143.56
2022-07-29T02:10:42.137Z,100150.03
2022-07-29T02:13:13.286Z,100153.41
2022-07-29T02:15:44.617Z,100150.88
2022-07-29T02:18:17.747Z,100151.78
2022-07-29T02:20:49.356Z,100147.53
2022-07-29T02:23:21.421Z,100140.28
2022-07-29T02:25:51.339Z,100147.38
2022-07-29T02:28:22.666Z,100142.31
2022-07-29T02:30:55.704Z,100136.66
2022-07-29T02:33:26.237Z,100145.31
2022-07-29T02:35:54.790Z,100142.28
2022-07-29T02:38:43.529Z,100140.59
2022-07-29T02:41:15.647Z,100141.59
2022-07-29T02:43:47.138Z,100145.91
2022-07-29T02:46:31.242Z,100142.50
2022-07-29T02:49:04.922Z,100149.47
2022-07-29T02:51:44.755Z,100138.59
2022-07-29T02:54:21.420Z,100140.66
2022-07-29T02:56:53.640Z,100138.59
2022-07-29T02:59:27.288Z,100145.22
2022-07-29T03:01:58.066Z,100148.63
2022-07-29T03:04:29.666Z,100136.59
2022-07-29T03:07:01.590Z,100140.31
2022-07-29T03:09:31.762Z,100140.81
2022-07-29T03:12:00.054Z,100143.03
2022-07-29T03:14:29.014Z,100141.66
2022-07-29T03:16:59.906Z,100137.25
2022-07-29T03:19:29.196Z,100145.09
2022-07-29T03:21:58.530Z,100136.94
2022-07-29T03:24:28.976Z,100143.69
2022-07-29T03:26:58.275Z,100145.56
2022-07-29T03:29:33.956Z,100149.97
2022-07-29T03:32:07.960Z,100154.34
2022-07-29T03:34:38.534Z,100151.84
2022-07-29T03:37:07.880Z,100147.56
2022-07-29T03:39:41.468Z,100146.06
2022-07-29T03:42:12.516Z,100147.56
2022-07-29T03:44:42.902Z,100150.81
2022-07-29T03:47:14.864Z,100145.75
2022-07-29T03:49:44.341Z,100147.47
2022-07-29T03:52:12.883Z,100146.09
2022-07-29T03:54:41.561Z,100146.78
2022-07-29T03:57:12.536Z,100153.75
2022-07-29T03:59:42.124Z,100152.88
2022-07-29T04:02:14.795Z,100159.53
2022-07-29T04:04:44.891Z,100164.25
2022-07-29T04:07:14.768Z,100157.63
2022-07-29T04:09:44.005Z,100165.75
2022-07-29T04:12:12.457Z,100161.34
2022-07-29T04:14:40.913Z,100170.84
2022-07-29T04:17:09.059Z,100162.25
2022-07-29T04:19:38.546Z,100159.56
2022-07-29T04:22:06.685Z,100165.25
2022-07-29T04:24:34.735Z,100152.88
2022-07-29T04:27:02.798Z,100152.47
2022-07-29T04:29:30.868Z,100157.03
2022-07-29T04:31:59.056Z,100156.03
2022-07-29T04:34:27.942Z,100159.53
2022-07-29T04:36:58.112Z,100161.47
2022-07-29T04:39:29.491Z,100163.69
2022-07-29T04:41:58.984Z,100159.41
2022-07-29T04:44:28.567Z,100154.19
2022-07-29T04:46:58.461Z,100161.59
2022-07-29T04:49:26.642Z,100164.72
2022-07-29T04:51:54.893Z,100167.06
2022-07-29T04:54:24.761Z,100167.53
2022-07-29T04:56:53.814Z,100162.06
2022-07-29T04:59:22.028Z,100159.81
2022-07-29T05:01:50.205Z,100167.19
2022-07-29T05:04:18.778Z,100165.91
2022-07-29T05:06:47.432Z,100158.84
2022-07-29T05:09:15.649Z,100163.91
2022-07-29T05:11:45.149Z,100168.75
2022-07-29T05:14:13.545Z,100163.91
2022-07-29T05:16:42.916Z,100165.44
2022-07-29T05:19:14.323Z,100162.91
2022-07-29T05:21:43.397Z,100162.66
2022-07-29T05:24:11.486Z,100157.66
2022-07-29T05:26:39.828Z,100159.97
2022-07-29T05:29:43.960Z,100159.13
2022-07-29T05:31:57.940Z,100162.91
2022-07-29T05:34:26.488Z,100163.75
2022-07-29T05:36:55.371Z,100156.47
2022-07-29T05:39:23.463Z,100157.00
2022-07-29T05:42:11.915Z,100166.69
2022-07-29T05:44:41.732Z,100159.34
2022-07-29T05:47:09.851Z,100164.00
2022-07-29T05:49:38.085Z,100163.13
2022-07-29T05:52:07.071Z,100164.09
2022-07-29T05:54:35.154Z,100163.41
2022-07-29T05:57:03.571Z,100161.31
2022-07-29T05:59:31.735Z,100162.09
2022-07-29T06:02:01.236Z,100164.81
2022-07-29T06:04:29.547Z,100176.34
2022-07-29T06:06:57.648Z,100172.66
2022-07-29T06:09:25.879Z,100163.22
2022-07-29T06:11:54.506Z,100172.19
2022-07-29T06:14:22.582Z,100170.03
2022-07-29T06:16:50.898Z,100167.53
2022-07-29T06:19:20.445Z,100167.31
2022-07-29T06:21:49.326Z,100167.97
2022-07-29T06:24:18.533Z,100171.00
2022-07-29T06:26:47.480Z,100171.59
2022-07-29T06:29:15.796Z,100161.50
2022-07-29T06:31:43.951Z,100172.22
2022-07-29T06:34:12.138Z,100179.69
2022-07-29T06:36:41.678Z,100171.09
2022-07-29T06:39:11.648Z,100175.03
2022-07-29T06:41:40.877Z,100173.38
2022-07-29T06:44:09.006Z,100183.06
2022-07-29T06:46:37.461Z,100175.81
2022-07-29T06:49:06.636Z,100177.44
2022-07-29T06:51:34.781Z,100182.41
2022-07-29T06:54:06.582Z,100182.41
2022-07-29T06:56:38.244Z,100177.22
2022-07-29T06:59:08.645Z,100179.38
2022-07-29T07:01:37.801Z,100174.84
2022-07-29T07:04:06.160Z,100173.97
2022-07-29T07:06:34.630Z,100181.63
2022-07-29T07:09:04.356Z,100182.41
2022-07-29T07:11:32.652Z,100177.00
2022-07-29T07:14:14.424Z,100179.03
2022-07-29T07:16:42.680Z,100171.53
2022-07-29T07:19:11.149Z,100172.59
2022-07-29T07:21:42.419Z,100176.34
2022-07-29T07:24:12.669Z,100170.47
2022-07-29T07:26:41.317Z,100170.75
2022-07-29T07:29:09.506Z,100174.59
2022-07-29T07:31:39.014Z,100164.47
2022-07-29T07:34:07.354Z,100159.94
2022-07-29T07:36:35.468Z,100171.81
2022-07-29T07:39:04.469Z,100170.25
2022-07-29T07:41:34.057Z,100173.97
2022-07-29T07:44:02.280Z,100171.16
2022-07-29T07:46:30.467Z,100173.41
2022-07-29T07:48:58.634Z,100172.53
2022-07-29T07:51:27.068Z,100170.75
2022-07-29T07:53:55.137Z,100168.59
2022-07-29T07:56:23.252Z,100163.75
2022-07-29T07:58:52.708Z,100167.84
2022-07-29T08:01:23.849Z,100170.53
2022-07-29T08:03:52.415Z,100158.06
2022-07-29T08:06:20.557Z,100166.59
2022-07-29T08:08:48.676Z,100157.56
2022-07-29T08:11:16.764Z,100158.56
2022-07-29T08:13:45.220Z,100165.34
2022-07-29T08:16:16.316Z,100159.47
2022-07-29T08:18:46.401Z,100163.97
2022-07-29T08:21:15.591Z,100157.22
2022-07-29T08:23:57.656Z,100161.72
2022-07-29T08:26:28.099Z,100153.19
2022-07-29T08:28:56.236Z,100151.34
2022-07-29T08:31:25.793Z,100154.38
2022-07-29T08:33:54.050Z,100149.66
2022-07-29T08:36:23.312Z,100149.19
2022-07-29T08:38:51.976Z,100145.31
2022-07-29T08:41:21.012Z,100153.28
2022-07-29T08:43:49.683Z,100148.06
2022-07-29T08:46:18.477Z,100142.53
2022-07-29T08:48:49.247Z,100143.91
2022-07-29T08:51:19.922Z,100144.03
2022-07-29T08:53:50.346Z,100137.69
2022-07-29T08:56:19.601Z,100132.22
2022-07-29T08:58:52.405Z,100135.03
2022-07-29T09:01:35.840Z,100131.13
2022-07-29T09:04:12.015Z,100123.81
2022-07-29T09:06:45.477Z,100134.66
2022-07-29T09:09:14.716Z,100132.63
2022-07-29T09:11:43.845Z,100129.53
2022-07-29T09:14:14.283Z,100131.16
2022-07-29T09:16:54.252Z,100129.09
2022-07-29T09:19:26.242Z,100117.00
2022-07-29T09:22:03.608Z,100121.06
2022-07-29T09:24:43.012Z,100120.44
2022-07-29T09:27:19.676Z,100126.28
2022-07-29T09:29:48.191Z,100123.28
2022-07-29T09:32:16.393Z,100113.88
2022-07-29T09:34:46.176Z,100112.91
2022-07-29T09:37:27.386Z,100114.31
2022-07-29T09:39:56.340Z,100109.41
2022-07-29T09:42:33.329Z,100103.50
2022-07-29T09:45:01.463Z,100106.59
2022-07-29T09:47:45.850Z,100100.44
2022-07-29T09:50:16.115Z,100100.25
2022-07-29T09:52:49.380Z,100091.88
2022-07-29T09:55:19.820Z,100095.22
2022-07-29T09:57:49.334Z,100087.88
2022-07-29T10:00:20.212Z,100091.31
2022-07-29T10:02:49.290Z,100087.91
2022-07-29T10:05:24.380Z,100090.66
2022-07-29T10:07:57.387Z,100083.00
2022-07-29T10:10:27.490Z,100081.19
2022-07-29T10:12:57.539Z,100092.44
2022-07-29T10:15:30.804Z,100084.84
2022-07-29T10:17:59.179Z,100079.66
2022-07-29T10:20:29.571Z,100079.81
2022-07-29T10:22:57.782Z,100084.56
2022-07-29T10:25:26.544Z,100081.28
2022-07-29T10:27:55.920Z,100083.44
2022-07-29T10:30:26.554Z,100074.78
2022-07-29T10:33:11.081Z,100071.50
2022-07-29T10:36:03.514Z,100071.75
2022-07-29T10:38:48.117Z,100063.38
2022-07-29T10:41:44.381Z,100067.13
2022-07-29T10:44:19.182Z,100062.22
2022-07-29T10:46:48.733Z,100062.75
2022-07-29T10:49:18.850Z,100059.09
2022-07-29T10:51:59.790Z,100061.47
2022-07-29T10:54:44.098Z,100049.94
2022-07-29T10:57:17.375Z,100050.16
2022-07-29T10:59:47.232Z,100051.84
2022-07-29T11:02:44.841Z,100046.47
2022-07-29T11:05:15.453Z,100033.56
2022-07-29T11:08:31.857Z,100036.09
2022-07-29T11:11:35.258Z,100039.94
2022-07-29T11:14:03.386Z,100036.19
2022-07-29T11:17:05.881Z,100039.34
2022-07-29T11:19:36.302Z,100028.94
2022-07-29T11:22:05.490Z,100033.69
2022-07-29T11:24:34.973Z,100030.06
2022-07-29T11:27:20.699Z,100019.41
2022-07-29T11:29:55.171Z,100019.25
2022-07-29T11:32:25.516Z,100023.59
2022-07-29T11:35:17.343Z,100017.78
2022-07-29T11:37:52.830Z,100017.22
2022-07-29T11:40:25.912Z,100008.41
2022-07-29T11:42:55.363Z,100003.03
2022-07-29T11:45:48.080Z,100005.72
2022-07-29T11:51:13.305Z,100002.34
2022-07-29T11:53:41.651Z,99998.00
2022-07-29T11:56:11.332Z,100000.50
2022-07-29T11:58:47.051Z,99999.50
2022-07-29T12:01:16.203Z,99995.50
2022-07-29T12:03:44.920Z,100000.97
2022-07-29T12:06:17.496Z,99991.63
2022-07-29T12:07:03.269Z,100001.50
2022-07-29T12:08:47.389Z,99991.16
2022-07-29T12:11:21.347Z,99990.31
2022-07-29T12:13:52.185Z,99995.28
2022-07-29T12:16:29.477Z,99984.41
2022-07-29T12:19:03.624Z,99980.53
2022-07-29T12:21:54.019Z,99971.59
2022-07-29T12:24:26.523Z,99971.84
2022-07-29T12:26:57.273Z,99972.41
2022-07-29T12:29:34.746Z,99973.91
2022-07-29T12:32:05.506Z,99968.53
2022-07-29T12:34:35.411Z,99967.13
2022-07-29T12:37:04.329Z,99960.25
2022-07-29T12:39:32.863Z,99958.16
2022-07-29T12:42:04.520Z,99947.69
2022-07-29T12:44:48.106Z,99945.91
2022-07-29T12:47:16.514Z,99940.56
2022-07-29T12:49:44.659Z,99936.84
2022-07-29T12:52:37.128Z,99935.25
2022-07-29T12:55:06.428Z,99922.25
2022-07-29T12:57:47.157Z,99928.78
2022-07-29T13:00:17.790Z,99927.56
2022-07-29T13:02:46.282Z,99919.44
2022-07-29T13:05:14.680Z,99924.06
2022-07-29T13:07:55.148Z,99921.53
2022-07-29T13:10:26.903Z,99910.81
2022-07-29T13:13:13.695Z,99922.28
2022-07-29T13:15:45.384Z,99918.44
2022-07-29T13:18:28.896Z,99909.97
2022-07-29T13:20:58.382Z,99900.69
2022-07-29T13:23:26.491Z,99911.88
2022-07-29T13:25:54.608Z,99902.88
2022-07-29T13:28:23.483Z,99904.28
2022-07-29T13:30:53.106Z,99901.34
2022-07-29T13:33:21.378Z,99904.28
2022-07-29T13:35:49.574Z,99902.06
2022-07-29T13:38:18.027Z,99900.47
2022-07-29T13:40:46.109Z,99897.09
2022-07-29T13:43:14.437Z,99898.25
2022-07-29T13:45:42.671Z,99891.69
2022-07-29T13:48:12.365Z,99888.66
2022-07-29T13:50:40.636Z,99878.81
2022-07-29T13:53:08.724Z,99878.97
2022-07-29T13:55:36.843Z,99883.84
2022-07-29T13:58:04.900Z,99881.53
2022-07-29T14:00:33.286Z,99871.38
2022-07-29T14:03:01.409Z,99875.91
2022-07-29T14:05:30.854Z,99872.22
2022-07-29T14:07:58.920Z,99866.69
2022-07-29T14:10:28.135Z,99866.66
2022-07-29T14:12:56.291Z,99862.22
2022-07-29T14:15:24.915Z,99860.56
2022-07-29T14:17:53.136Z,99865.69
2022-07-29T14:20:21.463Z,99856.69
2022-07-29T14:22:50.870Z,99855.47
2022-07-29T14:25:18.922Z,99853.13
2022-07-29T14:27:50.084Z,99856.50
2022-07-29T14:30:18.138Z,99853.13
2022-07-29T14:32:46.266Z,99845.94
2022-07-29T14:35:14.660Z,99848.28
2022-07-29T14:37:42.781Z,99844.78
2022-07-29T14:40:13.208Z,99849.69
2022-07-29T14:42:42.178Z,99837.91
2022-07-29T14:45:11.495Z,99832.38
2022-07-29T14:47:40.927Z,99834.63
2022-07-29T14:50:10.162Z,99832.19
2022-07-29T14:52:38.918Z,99831.16
2022-07-29T14:55:16.602Z,99831.09
2022-07-29T14:57:50.843Z,99818.63
2022-07-29T15:00:19.780Z,99806.53
2022-07-29T15:03:01.303Z,99809.00
2022-07-29T15:05:30.325Z,99802.81
2022-07-29T15:07:58.552Z,99800.97
2022-07-29T15:10:28.059Z,99809.84
2022-07-29T15:12:58.167Z,99806.19
2022-07-29T15:15:26.565Z,99809.00
2022-07-29T15:17:54.894Z,99807.03
2022-07-29T15:20:26.203Z,99805.63
2022-07-29T15:22:54.337Z,99799.00
2022-07-29T15:25:22.469Z,99798.66
2022-07-29T15:27:53.333Z,99797.38
2022-07-29T15:30:33.581Z,99794.47
2022-07-29T15:33:03.901Z,99792.94
2022-07-29T15:35:32.206Z,99794.59
2022-07-29T15:38:00.725Z,99792.75
2022-07-29T15:40:28.835Z,99787.53
2022-07-29T15:42:57.101Z,99789.66
2022-07-29T15:45:26.827Z,99787.53
2022-07-29T15:48:00.845Z,99788.25
2022-07-29T15:50:28.944Z,99784.59
2022-07-29T15:52:57.061Z,99793.13
2022-07-29T15:55:25.428Z,99784.38
2022-07-29T15:57:57.192Z,99785.47
2022-07-29T16:00:29.569Z,99777.09
2022-07-29T16:02:57.706Z,99773.91
2022-07-29T16:05:26.278Z,99778.44
2022-07-29T16:07:54.406Z,99772.50
2022-07-29T16:10:22.620Z,99773.41
2022-07-29T16:12:50.766Z,99776.28
2022-07-29T16:15:19.042Z,99780.28
2022-07-29T16:17:50.377Z,99777.44
2022-07-29T16:20:18.706Z,99776.00
2022-07-29T16:22:46.925Z,99776.34
2022-07-29T16:25:15.219Z,99779.78
2022-07-29T16:27:43.387Z,99776.28
2022-07-29T16:30:12.263Z,99784.31
2022-07-29T16:32:40.841Z,99773.75
2022-07-29T16:35:10.820Z,99770.66
2022-07-29T16:37:39.223Z,99774.50
2022-07-29T16:40:11.710Z,99768.25
2022-07-29T16:42:48.177Z,99769.56
2022-07-29T16:45:18.147Z,99760.88
2022-07-29T16:48:00.126Z,99768.22
2022-07-29T16:50:30.598Z,99765.16
2022-07-29T16:52:59.107Z,99767.56
2022-07-29T16:55:27.263Z,99774.69
2022-07-29T16:57:55.441Z,99770.50
2022-07-29T17:00:24.583Z,99761.03
2022-07-29T17:02:52.735Z,99770.25
2022-07-29T17:05:20.824Z,99770.69
2022-07-29T17:07:50.289Z,99769.59
2022-07-29T17:10:18.401Z,99773.84
2022-07-29T17:12:46.574Z,99763.78
2022-07-29T17:15:16.735Z,99760.97
2022-07-29T17:17:54.807Z,99767.56
2022-07-29T17:20:23.764Z,99767.78
2022-07-29T17:22:53.245Z,99765.78
2022-07-29T17:25:21.455Z,99778.06
2022-07-29T17:27:50.652Z,99778.81
2022-07-29T17:30:19.479Z,99773.63
2022-07-29T17:32:47.673Z,99773.13
2022-07-29T17:35:33.329Z,99778.31
2022-07-29T17:38:02.861Z,99775.56
2022-07-29T17:40:31.213Z,99769.84
2022-07-29T17:42:59.336Z,99772.22
2022-07-29T17:45:50.083Z,99773.09
2022-07-29T17:48:15.635Z,99772.31
2022-07-29T17:50:43.733Z,99771.00
2022-07-29T17:53:16.413Z,99770.03
2022-07-29T17:55:51.879Z,99766.44
2022-07-29T17:58:20.182Z,99773.06
2022-07-29T18:00:48.433Z,99774.94
2022-07-29T18:03:16.798Z,99770.00
2022-07-29T18:05:44.999Z,99783.28
2022-07-29T18:08:14.718Z,99780.03
2022-07-29T18:10:42.820Z,99781.00
2022-07-29T18:13:12.636Z,99785.16
2022-07-29T18:15:41.406Z,99786.56
2022-07-29T18:18:09.840Z,99788.13
2022-07-29T18:20:38.116Z,99790.88
2022-07-29T18:23:06.202Z,99793.25
2022-07-29T18:25:36.028Z,99792.41
2022-07-29T18:28:05.028Z,99793.69
2022-07-29T18:30:36.819Z,99805.91
2022-07-29T18:33:24.699Z,99802.19
2022-07-29T18:36:10.499Z,99799.75
2022-07-29T18:38:40.630Z,99801.28
2022-07-29T18:41:10.174Z,99807.25
2022-07-29T18:43:38.333Z,99813.34
2022-07-29T18:46:06.776Z,99811.69
2022-07-29T18:48:35.391Z,99804.97
2022-07-29T18:51:03.474Z,99818.97
2022-07-29T18:53:37.897Z,99833.09
2022-07-29T18:56:06.235Z,99842.78
2022-07-29T18:58:37.180Z,99844.09
2022-07-29T19:01:05.310Z,99848.84
2022-07-29T19:03:33.483Z,99845.69
2022-07-29T19:06:01.645Z,99845.38
2022-07-29T19:08:29.900Z,99861.03
2022-07-29T19:10:58.061Z,99853.38
2022-07-29T19:13:26.961Z,99849.53
2022-07-29T19:15:56.492Z,99853.59
2022-07-29T19:18:24.758Z,99862.78
2022-07-29T19:20:53.729Z,99854.75
2022-07-29T19:23:21.902Z,99865.88
2022-07-29T19:25:53.628Z,99868.84
2022-07-29T19:28:22.366Z,99862.56
2022-07-29T19:30:50.844Z,99854.31
2022-07-29T19:33:20.988Z,99860.78
2022-07-29T19:35:54.340Z,99859.34
2022-07-29T19:38:23.595Z,99855.22
2022-07-29T19:40:51.967Z,99864.56
2022-07-29T19:43:50.942Z,99859.91
2022-07-29T19:46:08.277Z,99866.31
2022-07-29T19:48:38.162Z,99863.34
2022-07-29T19:51:06.493Z,99855.34
2022-07-29T19:53:34.642Z,99851.50
2022-07-29T19:56:02.763Z,99853.69
2022-07-29T19:58:31.442Z,99849.06
2022-07-29T20:01:00.636Z,99836.88
2022-07-29T20:03:28.826Z,99843.41
2022-07-29T20:05:58.294Z,99846.38
2022-07-29T20:08:26.442Z,99849.75
2022-07-29T20:10:55.084Z,99853.34
2022-07-29T20:13:23.205Z,99848.94
2022-07-29T20:15:51.397Z,99852.31
2022-07-29T20:18:19.554Z,99855.03
2022-07-29T20:20:49.645Z,99863.66
2022-07-29T20:23:22.182Z,99856.28
2022-07-29T20:25:50.409Z,99872.31
2022-07-29T20:28:18.516Z,99881.59
2022-07-29T20:30:47.491Z,99870.84
2022-07-29T20:33:16.266Z,99872.72
2022-07-29T20:35:44.567Z,99868.94
2022-07-29T20:38:17.787Z,99868.09
2022-07-29T20:40:47.807Z,99875.03
2022-07-29T20:43:15.916Z,99874.41
2022-07-29T20:45:44.022Z,99872.31
2022-07-29T20:48:13.510Z,99878.19
2022-07-29T20:50:42.693Z,99870.78
2022-07-29T20:53:10.834Z,99875.97
2022-07-29T20:55:39.474Z,99889.44
2022-07-29T20:58:08.973Z,99887.75
2022-07-29T21:00:37.325Z,99890.41
2022-07-29T21:03:05.548Z,99892.47
2022-07-29T21:05:33.905Z,99884.09
2022-07-29T21:08:02.005Z,99896.97
2022-07-29T21:10:30.426Z,99894.53
2022-07-29T21:12:58.606Z,99897.00
2022-07-29T21:15:29.708Z,99898.41
2022-07-29T21:18:02.167Z,99899.72
2022-07-29T21:20:34.538Z,99894.88
2022-07-29T21:23:02.944Z,99887.75
2022-07-29T21:25:31.065Z,99889.78
2022-07-29T21:28:16.522Z,99888.56
2022-07-29T21:30:46.170Z,99896.09
2022-07-29T21:33:14.412Z,99901.50
2022-07-29T21:36:00.902Z,99898.50
2022-07-29T21:38:31.273Z,99901.97
2022-07-29T21:40:59.786Z,99913.97
2022-07-29T21:43:28.827Z,99907.84
2022-07-29T21:45:59.464Z,99917.22
2022-07-29T21:48:29.301Z,99925.03
2022-07-29T21:50:58.322Z,99934.44
2022-07-29T21:53:28.056Z,99937.97
2022-07-29T21:55:56.177Z,99935.56
2022-07-29T21:58:24.837Z,99940.78
2022-07-29T22:00:53.986Z,99935.44
2022-07-29T22:03:23.597Z,99948.78
2022-07-29T22:05:54.217Z,99950.97
2022-07-29T22:08:22.283Z,99938.97
2022-07-29T22:10:50.411Z,99937.19
2022-07-29T22:13:18.458Z,99942.88
2022-07-29T22:15:47.270Z,99940.47
2022-07-29T22:18:19.483Z,99941.69
2022-07-29T22:20:51.121Z,99945.16
2022-07-29T22:23:19.287Z,99945.63
2022-07-29T22:25:47.399Z,99950.63
2022-07-29T22:28:15.507Z,99943.56
2022-07-29T22:30:43.981Z,99953.34
2022-07-29T22:33:18.065Z,99951.38
2022-07-29T22:35:48.437Z,99948.34
2022-07-29T22:38:18.899Z,99956.16
2022-07-29T22:40:48.690Z,99948.06
2022-07-29T22:43:18.697Z,99942.72
2022-07-29T22:45:47.007Z,99949.13
2022-07-29T22:48:15.234Z,99950.22
2022-07-29T22:50:43.327Z,99945.84
2022-07-29T22:53:11.481Z,99943.59
2022-07-29T22:55:40.977Z,99943.78
2022-07-29T22:58:09.409Z,99944.63
2022-07-29T23:00:37.623Z,99944.72
2022-07-29T23:03:05.750Z,99936.22
2022-07-29T23:05:34.101Z,99933.31
2022-07-29T23:08:02.240Z,99937.25
2022-07-29T23:10:30.482Z,99933.31
2022-07-29T23:12:59.900Z,99925.97
2022-07-29T23:15:27.952Z,99929.91
2022-07-29T23:17:56.596Z,99924.47
2022-07-29T23:20:24.713Z,99922.69
2022-07-29T23:22:52.885Z,99918.06
2022-07-29T23:25:21.120Z,99920.47
2022-07-29T23:27:49.193Z,99920.44
2022-07-29T23:30:18.756Z,99914.72
2022-07-29T23:32:46.880Z,99916.88
2022-07-29T23:35:14.945Z,99914.31
2022-07-29T23:37:43.001Z,99907.47
2022-07-29T23:40:14.503Z,99900.03
2022-07-29T23:42:43.704Z,99900.69
2022-07-29T23:45:13.372Z,99903.59
2022-07-29T23:47:43.532Z,99899.56
2022-07-29T23:50:13.450Z,99894.78
2022-07-29T23:52:42.309Z,99893.28
2022-07-29T23:55:38.684Z,99891.22
2022-07-29T23:57:59.456Z,99889.59
